createdAt,value
2019-03-05T00:00:20.634Z,87.62
2019-03-05T00:01:30.228Z,86.91
2019-03-05T00:02:34.605Z,86.76
2019-03-05T00:03:38.928Z,86.85
2019-03-05T00:04:43.199Z,86.64
2019-03-05T00:05:47.515Z,86.35
2019-03-05T00:06:51.875Z,86.32
2019-03-05T00:07:56.407Z,86.74
2019-03-05T00:09:00.609Z,87.01
2019-03-05T00:10:05.599Z,87.15
2019-03-05T00:11:09.953Z,87.04
2019-03-05T00:12:14.245Z,87.02
2019-03-05T00:13:18.754Z,87.15
2019-03-05T00:14:25.140Z,86.88
2019-03-05T00:15:29.975Z,86.93
2019-03-05T00:16:34.243Z,86.91
2019-03-05T00:17:38.582Z,86.89
2019-03-05T00:18:42.960Z,86.61
2019-03-05T00:19:47.139Z,86.44
2019-03-05T00:20:51.664Z,85.99
2019-03-05T00:21:56.060Z,86.45
2019-03-05T00:23:00.386Z,85.87
2019-03-05T00:25:11.915Z,86.26
2019-03-05T00:26:16.538Z,85.80
2019-03-05T00:27:20.920Z,85.91
2019-03-05T00:28:35.036Z,85.30
2019-03-05T00:29:57.836Z,85.78
2019-03-05T00:31:09.477Z,85.20
2019-03-05T00:32:13.882Z,86.06
2019-03-05T00:33:26.813Z,86.17
2019-03-05T00:34:38.299Z,86.00
2019-03-05T00:37:04.842Z,86.22
2019-03-05T00:38:14.745Z,86.18
2019-03-05T00:39:36.581Z,85.87
2019-03-05T00:40:54.709Z,85.67
2019-03-05T00:42:08.754Z,85.75
2019-03-05T00:43:18.402Z,85.29
2019-03-05T00:44:46.853Z,85.66
2019-03-05T00:46:39.010Z,85.46
2019-03-05T00:49:56.656Z,85.98
2019-03-05T00:51:24.278Z,85.46
2019-03-05T00:52:28.457Z,85.35
2019-03-05T00:53:49.110Z,85.84
2019-03-05T00:56:08.005Z,84.97
2019-03-05T00:57:25.254Z,84.37
2019-03-05T00:58:41.093Z,84.70
2019-03-05T01:00:06.215Z,85.20
2019-03-05T01:03:23.410Z,85.40
2019-03-05T01:05:45.590Z,85.17
2019-03-05T01:06:49.965Z,84.67
2019-03-05T01:07:54.430Z,85.05
2019-03-05T01:08:58.883Z,84.89
2019-03-05T01:10:03.197Z,85.14
2019-03-05T01:11:07.586Z,84.91
2019-03-05T01:12:11.992Z,85.05
2019-03-05T01:13:16.399Z,84.93
2019-03-05T01:14:21.233Z,84.91
2019-03-05T01:15:25.710Z,84.18
2019-03-05T01:16:31.388Z,84.14
2019-03-05T01:17:35.694Z,83.75
2019-03-05T01:18:40.137Z,84.08
2019-03-05T01:19:44.614Z,84.20
2019-03-05T01:20:48.967Z,83.98
2019-03-05T01:21:53.149Z,83.76
2019-03-05T01:22:57.387Z,83.65
2019-03-05T01:24:01.858Z,84.41
2019-03-05T01:25:06.355Z,83.48
2019-03-05T01:26:10.803Z,83.10
2019-03-05T01:27:15.074Z,83.98
2019-03-05T01:28:19.430Z,83.93
2019-03-05T01:29:23.861Z,84.24
2019-03-05T01:30:32.713Z,84.65
2019-03-05T01:31:41.875Z,84.97
2019-03-05T01:32:50.822Z,84.95
2019-03-05T01:33:59.194Z,84.29
2019-03-05T01:35:10.500Z,85.33
2019-03-05T01:36:17.954Z,84.31
2019-03-05T01:37:22.400Z,84.16
2019-03-05T01:38:26.824Z,83.96
2019-03-05T01:39:43.543Z,83.35
2019-03-05T01:40:52.218Z,83.37
2019-03-05T01:41:56.623Z,83.48
2019-03-05T01:43:00.972Z,83.90
2019-03-05T01:44:05.400Z,83.21
2019-03-05T01:45:11.279Z,82.77
2019-03-05T01:46:15.624Z,82.59
2019-03-05T01:47:19.885Z,82.72
2019-03-05T01:48:24.230Z,82.37
2019-03-05T01:49:28.497Z,82.62
2019-03-05T01:50:32.907Z,82.89
2019-03-05T01:51:37.160Z,82.91
2019-03-05T01:52:41.523Z,83.10
2019-03-05T01:53:45.836Z,83.32
2019-03-05T01:54:50.112Z,83.47
2019-03-05T01:55:54.364Z,83.46
2019-03-05T01:56:58.714Z,83.60
2019-03-05T01:58:03.159Z,83.54
2019-03-05T01:59:07.475Z,83.40
2019-03-05T02:00:12.490Z,83.16
2019-03-05T02:01:16.945Z,83.15
2019-03-05T02:02:21.304Z,83.58
2019-03-05T02:03:25.774Z,83.50
2019-03-05T02:04:30.125Z,83.10
2019-03-05T02:05:34.837Z,81.98
2019-03-05T02:06:39.427Z,82.26
2019-03-05T02:07:43.746Z,82.78
2019-03-05T02:08:48.086Z,82.58
2019-03-05T02:09:52.574Z,82.26
2019-03-05T02:10:56.796Z,82.69
2019-03-05T02:12:01.115Z,82.11
2019-03-05T02:13:05.492Z,82.16
2019-03-05T02:14:09.852Z,82.21
2019-03-05T02:15:14.349Z,82.33
2019-03-05T02:16:18.654Z,82.97
2019-03-05T02:17:23.121Z,83.05
2019-03-05T02:18:27.638Z,83.28
2019-03-05T02:19:37.697Z,82.15
2019-03-05T02:20:42.158Z,82.64
2019-03-05T02:21:46.525Z,81.64
2019-03-05T02:22:55.343Z,80.12
2019-03-05T02:24:10.012Z,81.26
2019-03-05T02:26:28.495Z,81.68
2019-03-05T02:27:57.671Z,81.26
2019-03-05T02:30:12.929Z,82.13
2019-03-05T02:31:28.662Z,81.14
2019-03-05T02:32:43.887Z,81.54
2019-03-05T02:33:59.121Z,81.60
2019-03-05T02:35:20.116Z,80.90
2019-03-05T02:37:37.762Z,81.18
2019-03-05T02:39:00.724Z,82.45
2019-03-05T02:40:20.239Z,82.30
2019-03-05T02:41:33.347Z,82.36
2019-03-05T02:42:53.086Z,82.59
2019-03-05T02:44:09.673Z,83.12
2019-03-05T02:45:31.323Z,82.98
2019-03-05T02:46:43.456Z,82.65
2019-03-05T02:47:57.532Z,81.52
2019-03-05T02:49:17.612Z,81.97
2019-03-05T02:51:35.121Z,82.01
2019-03-05T02:52:50.572Z,81.00
2019-03-05T02:54:07.351Z,80.35
2019-03-05T02:56:20.102Z,81.06
2019-03-05T02:57:22.880Z,81.40
2019-03-05T02:58:25.665Z,81.67
2019-03-05T02:59:29.925Z,81.00
2019-03-05T03:00:40.385Z,80.84
2019-03-05T03:01:53.624Z,80.53
2019-03-05T03:03:01.726Z,80.55
2019-03-05T03:04:09.817Z,80.98
2019-03-05T03:05:24.062Z,80.71
2019-03-05T03:06:31.341Z,80.72
2019-03-05T03:07:35.832Z,80.29
2019-03-05T03:08:40.118Z,80.78
2019-03-05T03:10:16.914Z,81.30
2019-03-05T03:11:21.194Z,81.13
2019-03-05T03:12:25.644Z,80.38
2019-03-05T03:13:30.046Z,79.66
2019-03-05T03:14:34.426Z,80.02
2019-03-05T03:15:38.723Z,80.26
2019-03-05T03:16:42.997Z,80.56
2019-03-05T03:17:47.790Z,80.83
2019-03-05T03:18:52.171Z,79.67
2019-03-05T03:19:56.499Z,79.57
2019-03-05T03:21:00.784Z,80.15
2019-03-05T03:22:05.420Z,78.86
2019-03-05T03:23:09.814Z,78.98
2019-03-05T03:24:14.117Z,78.92
2019-03-05T03:25:20.641Z,78.34
2019-03-05T03:26:25.018Z,79.15
2019-03-05T03:27:29.525Z,79.28
2019-03-05T03:28:33.926Z,79.07
2019-03-05T03:29:38.268Z,79.44
2019-03-05T03:30:42.606Z,78.88
2019-03-05T03:31:46.856Z,79.49
2019-03-05T03:32:51.305Z,78.69
2019-03-05T03:33:55.687Z,78.78
2019-03-05T03:34:59.960Z,78.94
2019-03-05T03:36:04.292Z,78.55
2019-03-05T03:37:08.600Z,78.55
2019-03-05T03:38:13.041Z,78.62
2019-03-05T03:39:17.515Z,78.32
2019-03-05T03:40:22.740Z,78.53
2019-03-05T03:41:27.177Z,78.24
2019-03-05T03:42:31.602Z,78.07
2019-03-05T03:43:36.037Z,77.93
2019-03-05T03:44:40.505Z,77.84
2019-03-05T03:45:44.814Z,78.64
2019-03-05T03:46:49.201Z,78.84
2019-03-05T03:47:53.513Z,78.83
2019-03-05T03:48:57.964Z,78.65
2019-03-05T03:50:02.253Z,78.15
2019-03-05T03:51:06.608Z,78.08
2019-03-05T03:52:10.858Z,79.03
2019-03-05T03:53:15.174Z,77.76
2019-03-05T03:54:19.533Z,78.23
2019-03-05T03:55:24.097Z,77.10
2019-03-05T03:56:28.316Z,77.52
2019-03-05T03:57:32.681Z,77.91
2019-03-05T03:58:36.913Z,78.78
2019-03-05T03:59:41.320Z,77.55
2019-03-05T04:00:45.753Z,78.26
2019-03-05T04:01:50.158Z,78.13
2019-03-05T04:02:55.138Z,78.66
2019-03-05T04:03:59.485Z,77.10
2019-03-05T04:05:04.110Z,76.66
2019-03-05T04:06:08.522Z,76.44
2019-03-05T04:07:12.842Z,75.72
2019-03-05T04:08:17.220Z,76.58
2019-03-05T04:09:21.605Z,77.43
2019-03-05T04:10:25.957Z,77.08
2019-03-05T04:11:30.368Z,77.37
2019-03-05T04:12:34.728Z,77.87
2019-03-05T04:13:39.055Z,77.38
2019-03-05T04:14:43.253Z,77.66
2019-03-05T04:15:47.659Z,78.09
2019-03-05T04:16:51.784Z,78.62
2019-03-05T04:17:56.097Z,78.49
2019-03-05T04:19:00.588Z,78.63
2019-03-05T04:20:05.083Z,78.34
2019-03-05T04:21:09.576Z,78.27
2019-03-05T04:22:14.003Z,77.00
2019-03-05T04:23:18.451Z,77.26
2019-03-05T04:24:22.745Z,77.28
2019-03-05T04:25:27.004Z,77.76
2019-03-05T04:26:31.115Z,78.55
2019-03-05T04:27:35.117Z,77.76
2019-03-05T04:28:39.129Z,76.74
2019-03-05T04:29:43.089Z,77.46
2019-03-05T04:30:47.064Z,76.79
2019-03-05T04:31:51.132Z,76.72
2019-03-05T04:32:55.126Z,77.56
2019-03-05T04:33:59.256Z,76.39
2019-03-05T04:35:03.350Z,76.96
2019-03-05T04:36:07.375Z,76.39
2019-03-05T04:37:11.440Z,76.23
2019-03-05T04:38:15.438Z,76.85
2019-03-05T04:39:19.454Z,77.67
2019-03-05T04:40:23.502Z,77.01
2019-03-05T04:41:27.486Z,77.54
2019-03-05T04:42:31.548Z,77.13
2019-03-05T04:43:35.601Z,77.46
2019-03-05T04:44:45.095Z,77.87
2019-03-05T04:45:55.744Z,77.02
2019-03-05T04:47:00.201Z,77.02
2019-03-05T04:48:04.459Z,77.05
2019-03-05T04:49:43.761Z,77.31
2019-03-05T04:50:53.605Z,77.90
2019-03-05T04:52:01.750Z,78.34
2019-03-05T04:53:06.113Z,77.42
2019-03-05T04:54:10.485Z,77.99
2019-03-05T04:55:14.888Z,78.38
2019-03-05T04:56:19.173Z,77.30
2019-03-05T04:57:23.466Z,77.36
2019-03-05T04:58:27.890Z,76.62
2019-03-05T04:59:32.329Z,76.18
2019-03-05T05:00:36.455Z,76.83
2019-03-05T05:01:40.869Z,76.48
2019-03-05T05:02:45.137Z,76.76
2019-03-05T05:03:49.524Z,76.75
2019-03-05T05:04:53.882Z,78.04
2019-03-05T05:05:58.187Z,77.08
2019-03-05T05:07:02.627Z,77.00
2019-03-05T05:08:07.073Z,77.36
2019-03-05T05:09:11.594Z,77.17
2019-03-05T05:10:15.998Z,77.94
2019-03-05T05:11:20.346Z,77.00
2019-03-05T05:12:24.630Z,77.35
2019-03-05T05:13:28.850Z,76.43
2019-03-05T05:14:33.187Z,76.85
2019-03-05T05:15:37.804Z,77.19
2019-03-05T05:16:42.074Z,76.85
2019-03-05T05:17:46.222Z,77.18
2019-03-05T05:18:50.582Z,77.77
2019-03-05T05:19:54.868Z,77.99
2019-03-05T05:20:59.426Z,77.84
2019-03-05T05:22:03.638Z,76.29
2019-03-05T05:23:08.003Z,76.77
2019-03-05T05:24:12.352Z,75.99
2019-03-05T05:25:16.735Z,76.27
2019-03-05T05:26:21.047Z,76.48
2019-03-05T05:27:25.449Z,75.50
2019-03-05T05:28:29.901Z,75.55
2019-03-05T05:29:34.386Z,76.04
2019-03-05T05:30:39.789Z,75.61
2019-03-05T05:31:44.116Z,74.72
2019-03-05T05:32:48.470Z,75.37
2019-03-05T05:33:52.750Z,75.20
2019-03-05T05:34:57.127Z,75.47
2019-03-05T05:36:01.462Z,75.81
2019-03-05T05:37:05.806Z,75.98
2019-03-05T05:38:10.191Z,76.24
2019-03-05T05:40:23.196Z,77.40
2019-03-05T05:41:27.558Z,75.79
2019-03-05T05:42:31.809Z,77.34
2019-03-05T05:43:36.181Z,77.02
2019-03-05T05:44:40.449Z,76.68
2019-03-05T05:45:47.211Z,76.49
2019-03-05T05:46:51.511Z,76.59
2019-03-05T05:47:55.924Z,76.17
2019-03-05T05:49:00.274Z,76.32
2019-03-05T05:50:04.668Z,75.72
2019-03-05T05:51:09.077Z,75.69
2019-03-05T05:52:13.297Z,76.34
2019-03-05T05:53:17.679Z,76.33
2019-03-05T05:54:21.952Z,75.68
2019-03-05T05:55:26.297Z,76.10
2019-03-05T05:56:30.654Z,75.74
2019-03-05T05:57:35.956Z,75.97
2019-03-05T05:58:39.553Z,76.94
2019-03-05T05:59:43.968Z,76.85
2019-03-05T06:00:51.152Z,77.14
2019-03-05T06:01:55.554Z,76.18
2019-03-05T06:02:59.954Z,77.05
2019-03-05T06:04:04.181Z,76.49
2019-03-05T06:05:08.914Z,75.34
2019-03-05T06:06:13.145Z,75.37
2019-03-05T06:07:17.590Z,75.67
2019-03-05T06:08:22.113Z,76.15
2019-03-05T06:09:26.624Z,75.76
2019-03-05T06:10:31.059Z,75.20
2019-03-05T06:11:35.336Z,74.80
2019-03-05T06:12:39.952Z,73.58
2019-03-05T06:13:44.360Z,74.08
2019-03-05T06:14:48.800Z,75.01
2019-03-05T06:15:53.093Z,74.83
2019-03-05T06:16:57.502Z,74.66
2019-03-05T06:18:01.929Z,74.80
2019-03-05T06:19:05.935Z,74.23
2019-03-05T06:20:11.392Z,73.79
2019-03-05T06:21:15.430Z,73.27
2019-03-05T06:22:19.469Z,73.59
2019-03-05T06:23:23.597Z,74.29
2019-03-05T06:24:27.659Z,74.92
2019-03-05T06:25:31.757Z,74.18
2019-03-05T06:26:35.791Z,74.02
2019-03-05T06:27:39.801Z,74.51
2019-03-05T06:28:43.963Z,74.68
2019-03-05T06:29:47.965Z,75.06
2019-03-05T06:30:51.960Z,75.80
2019-03-05T06:31:56.126Z,76.53
2019-03-05T06:33:00.163Z,76.31
2019-03-05T06:34:04.322Z,76.46
2019-03-05T06:35:08.585Z,75.18
2019-03-05T06:36:12.673Z,74.56
2019-03-05T06:37:16.697Z,75.18
2019-03-05T06:38:20.714Z,75.47
2019-03-05T06:39:24.954Z,74.86
2019-03-05T06:40:29.105Z,74.11
2019-03-05T06:41:33.123Z,73.39
2019-03-05T06:42:37.181Z,73.93
2019-03-05T06:43:41.237Z,74.66
2019-03-05T06:44:45.342Z,74.95
2019-03-05T06:45:49.383Z,75.46
2019-03-05T06:46:53.456Z,73.06
2019-03-05T06:47:57.534Z,73.11
2019-03-05T06:49:01.551Z,73.34
2019-03-05T06:50:06.399Z,72.33
2019-03-05T06:51:10.495Z,73.35
2019-03-05T06:52:14.593Z,74.22
2019-03-05T06:53:18.667Z,72.71
2019-03-05T06:54:22.687Z,73.18
2019-03-05T06:55:26.755Z,72.65
2019-03-05T06:56:30.905Z,73.42
2019-03-05T06:57:34.937Z,73.34
2019-03-05T06:58:39.121Z,73.86
2019-03-05T06:59:43.486Z,72.30
2019-03-05T07:00:47.997Z,72.60
2019-03-05T07:01:52.378Z,72.77
2019-03-05T07:02:56.705Z,73.10
2019-03-05T07:04:01.003Z,73.12
2019-03-05T07:05:05.605Z,75.09
2019-03-05T07:06:20.818Z,73.40
2019-03-05T07:07:25.617Z,73.62
2019-03-05T07:08:29.704Z,72.49
2019-03-05T07:09:40.602Z,74.27
2019-03-05T07:10:53.766Z,73.20
2019-03-05T07:12:09.081Z,72.77
2019-03-05T07:13:17.359Z,72.22
2019-03-05T07:14:27.493Z,72.24
2019-03-05T07:15:48.855Z,71.96
2019-03-05T07:18:03.157Z,72.46
2019-03-05T07:19:22.245Z,72.58
2019-03-05T07:22:40.935Z,72.12
2019-03-05T07:23:56.026Z,71.77
2019-03-05T07:25:00.396Z,71.73
2019-03-05T07:26:04.625Z,72.13
2019-03-05T07:27:10.014Z,71.76
2019-03-05T07:28:14.385Z,72.20
2019-03-05T07:29:18.694Z,72.31
2019-03-05T07:30:24.362Z,73.20
2019-03-05T07:31:28.653Z,71.92
2019-03-05T07:32:32.907Z,72.01
2019-03-05T07:33:37.280Z,72.02
2019-03-05T07:34:43.956Z,73.09
2019-03-05T07:35:48.275Z,72.56
2019-03-05T07:36:52.563Z,72.09
2019-03-05T07:37:57.026Z,73.93
2019-03-05T07:39:01.267Z,72.04
2019-03-05T07:40:06.070Z,71.88
2019-03-05T07:41:10.388Z,73.68
2019-03-05T07:42:14.634Z,72.19
2019-03-05T07:43:19.023Z,71.41
2019-03-05T07:44:23.449Z,72.45
2019-03-05T07:45:27.814Z,71.70
2019-03-05T07:46:32.132Z,71.34
2019-03-05T07:47:36.491Z,71.13
2019-03-05T07:48:40.896Z,72.09
2019-03-05T07:49:44.942Z,70.51
2019-03-05T07:50:55.754Z,70.90
2019-03-05T07:52:00.133Z,70.26
2019-03-05T07:53:04.673Z,70.12
2019-03-05T07:54:09.064Z,70.82
2019-03-05T07:55:15.527Z,70.92
2019-03-05T07:56:20.029Z,70.63
2019-03-05T07:57:24.267Z,71.91
2019-03-05T07:58:28.606Z,71.48
2019-03-05T07:59:32.850Z,70.52
2019-03-05T08:00:37.145Z,71.11
2019-03-05T08:01:41.538Z,70.43
2019-03-05T08:02:45.978Z,70.17
2019-03-05T08:03:50.341Z,71.04
2019-03-05T08:04:54.724Z,70.19
2019-03-05T08:05:59.121Z,70.96
2019-03-05T08:07:03.509Z,70.35
2019-03-05T08:08:26.449Z,70.65
2019-03-05T08:09:34.058Z,69.97
2019-03-05T08:10:38.449Z,71.67
2019-03-05T08:11:42.884Z,71.35
2019-03-05T08:13:07.878Z,69.73
2019-03-05T08:14:25.814Z,70.93
2019-03-05T08:16:01.955Z,69.73
2019-03-05T08:16:57.046Z,68.31
2019-03-05T08:18:01.281Z,68.46
2019-03-05T08:19:05.709Z,67.27
2019-03-05T08:20:11.011Z,67.81
2019-03-05T08:21:15.385Z,68.48
2019-03-05T08:22:19.726Z,68.41
2019-03-05T08:23:24.341Z,67.81
2019-03-05T08:24:28.572Z,67.75
2019-03-05T08:25:32.878Z,67.44
2019-03-05T08:26:37.145Z,66.38
2019-03-05T08:27:41.419Z,67.08
2019-03-05T08:28:45.708Z,66.78
2019-03-05T08:29:50.117Z,66.64
2019-03-05T08:30:54.601Z,68.56
2019-03-05T08:31:58.934Z,68.87
2019-03-05T08:33:19.238Z,68.55
2019-03-05T08:34:39.694Z,68.27
2019-03-05T08:35:59.957Z,69.23
2019-03-05T08:37:20.268Z,68.81
2019-03-05T08:38:40.623Z,68.50
2019-03-05T08:40:00.981Z,67.45
2019-03-05T08:41:04.763Z,68.76
2019-03-05T08:42:08.892Z,66.82
2019-03-05T08:43:12.611Z,66.64
2019-03-05T09:10:08.234Z,67.95
2019-03-05T09:11:12.409Z,67.95
2019-03-05T09:12:16.785Z,66.36
2019-03-05T09:13:31.941Z,65.20
2019-03-05T09:14:25.515Z,65.52
2019-03-05T09:15:29.835Z,65.17
2019-03-05T09:16:34.229Z,64.87
2019-03-05T09:17:38.598Z,63.35
2019-03-05T09:18:43.031Z,64.98
2019-03-05T09:19:47.374Z,62.94
2019-03-05T09:20:51.790Z,62.40
2019-03-05T09:21:56.099Z,62.04
2019-03-05T09:23:00.615Z,61.56
2019-03-05T09:24:04.982Z,61.44
2019-03-05T09:25:09.916Z,61.83
2019-03-05T09:26:14.310Z,62.66
2019-03-05T09:27:18.581Z,62.21
2019-03-05T09:28:22.935Z,63.54
2019-03-05T09:29:27.265Z,63.64
2019-03-05T09:30:31.553Z,64.00
2019-03-05T09:31:35.943Z,64.28
2019-03-05T09:32:40.309Z,65.71
2019-03-05T09:33:44.740Z,65.25
2019-03-05T09:34:49.108Z,65.90
2019-03-05T09:35:53.306Z,64.69
2019-03-05T09:36:57.602Z,64.80
2019-03-05T09:38:01.821Z,65.65
2019-03-05T09:39:07.943Z,66.08
2019-03-05T09:40:14.836Z,64.26
2019-03-05T09:41:19.150Z,63.95
2019-03-05T09:42:23.514Z,62.63
2019-03-05T09:43:27.893Z,63.06
2019-03-05T09:44:32.164Z,62.67
2019-03-05T09:45:36.430Z,61.98
2019-03-05T09:46:40.775Z,61.62
2019-03-05T09:47:45.355Z,62.38
2019-03-05T09:48:49.633Z,62.54
2019-03-05T09:49:54.034Z,61.71
2019-03-05T09:50:58.371Z,61.48
2019-03-05T09:52:02.732Z,62.15
2019-03-05T09:53:07.225Z,60.94
2019-03-05T09:54:11.497Z,60.89
2019-03-05T09:55:17.969Z,59.98
2019-03-05T09:56:22.233Z,58.55
2019-03-05T09:57:27.402Z,59.96
2019-03-05T09:58:31.103Z,62.38
2019-03-05T09:59:35.476Z,60.51
2019-03-05T10:00:39.867Z,61.08
2019-03-05T10:01:44.256Z,60.49
2019-03-05T10:02:48.683Z,59.86
2019-03-05T10:03:53.020Z,59.38
2019-03-05T10:04:57.038Z,60.90
2019-03-05T10:06:01.079Z,59.45
2019-03-05T10:07:05.406Z,59.41
2019-03-05T10:08:09.723Z,59.30
2019-03-05T10:09:14.093Z,59.44
2019-03-05T10:10:20.311Z,60.36
2019-03-05T10:11:24.910Z,60.57
2019-03-05T10:12:30.177Z,59.92
2019-03-05T10:13:33.673Z,61.09
2019-03-05T10:14:38.081Z,62.62
2019-03-05T10:15:42.450Z,61.51
2019-03-05T10:16:46.741Z,60.89
2019-03-05T10:17:51.209Z,60.50
2019-03-05T10:18:55.593Z,58.45
2019-03-05T10:20:00.039Z,59.71
2019-03-05T10:21:04.496Z,59.99
2019-03-05T10:22:08.889Z,59.37
2019-03-05T10:23:13.329Z,59.89
2019-03-05T10:24:17.626Z,59.15
2019-03-05T10:25:22.989Z,59.73
2019-03-05T10:26:27.388Z,59.53
2019-03-05T10:27:31.663Z,59.99
2019-03-05T10:28:36.133Z,60.28
2019-03-05T10:29:40.591Z,57.59
2019-03-05T10:30:44.955Z,59.35
2019-03-05T10:31:49.460Z,58.72
2019-03-05T10:32:54.045Z,58.27
2019-03-05T10:33:58.252Z,57.97
2019-03-05T10:35:02.562Z,58.32
2019-03-05T10:36:06.958Z,59.23
2019-03-05T10:37:14.689Z,59.28
2019-03-05T10:38:15.760Z,59.15
2019-03-05T10:39:30.426Z,59.58
2019-03-05T10:40:32.520Z,57.58
2019-03-05T10:41:36.996Z,58.00
2019-03-05T10:42:41.526Z,58.31
2019-03-05T10:43:45.846Z,58.65
2019-03-05T10:44:50.221Z,58.41
2019-03-05T10:45:54.579Z,58.79
2019-03-05T10:46:59.049Z,58.35
2019-03-05T10:48:03.414Z,57.92
2019-03-05T10:49:07.850Z,56.70
2019-03-05T10:50:15.729Z,56.59
2019-03-05T10:51:19.227Z,56.93
2019-03-05T10:52:23.310Z,59.10
2019-03-05T10:53:27.602Z,57.27
2019-03-05T10:54:31.633Z,57.64
2019-03-05T10:55:35.974Z,56.24
2019-03-05T10:56:40.294Z,56.64
2019-03-05T10:57:44.774Z,56.88
2019-03-05T10:58:49.108Z,55.91
2019-03-05T10:59:53.274Z,55.15
2019-03-05T11:00:57.735Z,56.36
2019-03-05T11:02:02.285Z,57.63
2019-03-05T11:03:09.705Z,56.94
2019-03-05T11:04:14.050Z,55.59
2019-03-05T11:05:18.554Z,55.88
2019-03-05T11:06:22.883Z,56.51
2019-03-05T11:07:27.295Z,56.07
2019-03-05T11:08:31.718Z,55.89
2019-03-05T11:09:36.040Z,56.33
2019-03-05T11:10:41.226Z,56.63
2019-03-05T11:11:44.903Z,58.26
2019-03-05T11:12:49.428Z,58.47
2019-03-05T11:13:53.619Z,57.76
2019-03-05T11:14:58.039Z,57.82
2019-03-05T11:16:02.387Z,57.85
2019-03-05T11:17:06.746Z,56.99
2019-03-05T11:18:11.374Z,57.27
2019-03-05T11:19:15.721Z,57.65
2019-03-05T11:20:20.182Z,58.24
2019-03-05T11:21:24.653Z,58.46
2019-03-05T11:22:28.853Z,58.92
2019-03-05T11:23:33.289Z,58.47
2019-03-05T11:24:37.658Z,58.45
2019-03-05T11:25:42.034Z,59.46
2019-03-05T11:26:46.366Z,59.66
2019-03-05T11:27:50.950Z,59.00
2019-03-05T11:28:55.272Z,59.46
2019-03-05T11:29:59.577Z,58.86
2019-03-05T11:31:04.054Z,59.79
2019-03-05T11:32:08.402Z,58.84
2019-03-05T11:33:12.706Z,58.52
2019-03-05T11:34:17.181Z,57.99
2019-03-05T11:35:23.291Z,58.76
2019-03-05T11:36:27.688Z,58.90
2019-03-05T11:37:31.987Z,57.01
2019-03-05T11:38:36.318Z,57.78
2019-03-05T11:39:40.774Z,57.20
2019-03-05T11:40:45.130Z,57.43
2019-03-05T11:41:49.579Z,58.07
2019-03-05T11:42:53.922Z,56.00
2019-03-05T11:43:58.366Z,55.27
2019-03-05T11:45:07.510Z,56.00
2019-03-05T11:46:09.333Z,55.31
2019-03-05T11:47:13.700Z,54.25
2019-03-05T11:48:18.049Z,54.93
2019-03-05T11:49:22.360Z,53.97
2019-03-05T11:50:26.825Z,54.77
2019-03-05T11:51:31.059Z,54.00
2019-03-05T11:52:35.379Z,55.65
2019-03-05T11:53:39.756Z,55.48
2019-03-05T11:54:44.102Z,55.18
2019-03-05T11:55:48.502Z,55.33
2019-03-05T11:56:52.839Z,54.29
2019-03-05T11:57:57.225Z,54.20
2019-03-05T11:59:01.540Z,52.93
2019-03-05T12:00:06.545Z,54.91
2019-03-05T12:01:19.366Z,54.24
2019-03-05T12:02:23.559Z,54.03
2019-03-05T12:03:27.884Z,53.77
2019-03-05T12:04:32.169Z,54.91
2019-03-05T12:05:36.434Z,53.54
2019-03-05T12:06:40.770Z,54.82
2019-03-05T12:07:46.140Z,51.92
2019-03-05T12:08:49.671Z,52.87
2019-03-05T12:09:54.031Z,51.16
2019-03-05T12:10:58.361Z,49.00
2019-03-05T12:12:02.968Z,49.53
2019-03-05T12:13:07.552Z,47.89
2019-03-05T12:14:11.913Z,48.59
2019-03-05T12:15:16.769Z,48.10
2019-03-05T12:16:21.066Z,48.32
2019-03-05T12:17:25.392Z,48.37
2019-03-05T12:18:29.654Z,48.15
2019-03-05T12:19:34.052Z,48.08
2019-03-05T12:20:38.353Z,48.65
2019-03-05T12:21:42.702Z,48.99
2019-03-05T12:22:47.021Z,48.33
2019-03-05T12:23:51.420Z,47.96
2019-03-05T12:24:57.693Z,47.01
2019-03-05T12:26:00.297Z,48.26
2019-03-05T12:27:04.546Z,48.21
2019-03-05T12:28:10.697Z,48.84
2019-03-05T12:29:13.284Z,47.21
2019-03-05T12:30:20.936Z,47.15
2019-03-05T12:31:25.446Z,47.48
2019-03-05T12:32:29.842Z,47.50
2019-03-05T12:33:34.287Z,47.77
2019-03-05T12:34:38.801Z,48.33
2019-03-05T12:35:43.158Z,47.65
2019-03-05T12:36:47.527Z,48.72
2019-03-05T12:37:52.154Z,47.96
2019-03-05T12:38:56.656Z,47.75
2019-03-05T12:40:00.760Z,46.68
2019-03-05T12:41:05.107Z,46.71
2019-03-05T12:42:09.320Z,47.26
2019-03-05T12:43:13.661Z,48.02
2019-03-05T12:44:18.134Z,47.43
2019-03-05T12:45:22.672Z,49.64
2019-03-05T12:46:27.113Z,49.42
2019-03-05T12:47:31.361Z,49.58
2019-03-05T12:48:40.001Z,51.20
2019-03-05T12:49:40.258Z,50.41
2019-03-05T12:50:44.620Z,51.99
2019-03-05T12:51:48.899Z,50.91
2019-03-05T12:52:53.517Z,52.67
2019-03-05T12:53:57.767Z,53.30
2019-03-05T12:55:02.193Z,53.19
2019-03-05T12:56:06.707Z,54.06
2019-03-05T12:57:10.993Z,52.83
2019-03-05T12:58:15.377Z,55.04
2019-03-05T12:59:19.582Z,53.69
2019-03-05T13:00:24.229Z,53.52
2019-03-05T13:01:28.637Z,53.54
2019-03-05T13:02:32.906Z,53.75
2019-03-05T13:03:37.239Z,54.48
2019-03-05T13:04:41.569Z,51.76
2019-03-05T13:05:45.998Z,52.83
2019-03-05T13:06:50.370Z,52.77
2019-03-05T13:07:56.576Z,53.08
2019-03-05T13:08:59.187Z,51.78
2019-03-05T13:10:03.451Z,50.79
2019-03-05T13:11:09.420Z,49.02
2019-03-05T13:12:12.325Z,48.37
2019-03-05T13:13:16.715Z,49.19
2019-03-05T13:14:20.955Z,48.56
2019-03-05T13:15:27.347Z,48.15
2019-03-05T13:16:35.167Z,48.19
2019-03-05T13:17:36.014Z,49.04
2019-03-05T13:18:40.326Z,50.09
2019-03-05T13:19:47.881Z,49.10
2019-03-05T13:20:49.043Z,49.45
2019-03-05T13:21:53.318Z,50.50
2019-03-05T13:22:57.634Z,49.62
2019-03-05T13:24:02.069Z,49.31
2019-03-05T13:25:06.345Z,50.62
2019-03-05T13:26:10.596Z,49.29
2019-03-05T13:27:18.740Z,49.90
2019-03-05T13:28:19.507Z,50.41
2019-03-05T13:29:23.789Z,53.41
2019-03-05T13:30:28.556Z,52.94
2019-03-05T13:31:32.929Z,50.34
2019-03-05T13:32:37.273Z,49.92
2019-03-05T13:33:42.167Z,50.02
2019-03-05T13:34:46.095Z,49.94
2019-03-05T13:35:50.484Z,48.04
2019-03-05T13:36:54.986Z,48.26
2019-03-05T13:37:59.306Z,50.14
2019-03-05T13:39:03.813Z,48.76
2019-03-05T13:40:09.439Z,51.24
2019-03-05T13:41:15.714Z,50.92
2019-03-05T13:42:18.178Z,53.77
2019-03-05T13:43:22.725Z,51.46
2019-03-05T13:44:32.120Z,52.95
2019-03-05T13:45:35.886Z,50.51
2019-03-05T13:46:40.121Z,52.39
2019-03-05T13:47:48.756Z,51.00
2019-03-05T13:50:08.249Z,52.46
2019-03-05T13:53:25.261Z,51.03
2019-03-05T13:55:13.568Z,51.28
2019-03-05T13:56:37.614Z,48.21
2019-03-05T13:57:55.103Z,47.77
2019-03-05T13:59:10.352Z,46.63
2019-03-05T14:00:14.833Z,47.35
2019-03-05T14:01:19.371Z,46.46
2019-03-05T14:02:27.063Z,46.10
2019-03-05T14:03:36.035Z,45.17
2019-03-05T14:04:47.186Z,45.98
2019-03-05T14:08:15.971Z,46.02
2019-03-05T14:09:21.294Z,45.23
2019-03-05T14:10:26.309Z,46.03
2019-03-05T14:11:30.346Z,47.12
2019-03-05T14:12:34.753Z,47.29
2019-03-05T14:13:39.170Z,47.92
2019-03-05T14:14:43.530Z,46.30
2019-03-05T14:15:47.847Z,48.64
2019-03-05T14:17:25.153Z,46.71
2019-03-05T14:18:31.198Z,46.41
2019-03-05T14:19:34.199Z,45.77
2019-03-05T14:20:38.530Z,46.75
2019-03-05T14:21:42.932Z,47.24
2019-03-05T14:22:47.647Z,46.61
2019-03-05T14:23:51.960Z,46.98
2019-03-05T14:25:02.177Z,45.96
2019-03-05T14:26:00.689Z,47.16
2019-03-05T14:27:05.170Z,46.73
2019-03-05T14:28:09.398Z,45.22
2019-03-05T14:29:13.857Z,47.67
2019-03-05T14:30:20.957Z,47.53
2019-03-05T14:31:23.635Z,46.84
2019-03-05T14:32:28.120Z,48.44
2019-03-05T14:33:32.400Z,46.96
2019-03-05T14:34:36.730Z,48.84
2019-03-05T14:35:41.279Z,48.20
2019-03-05T14:36:45.557Z,48.21
2019-03-05T14:37:50.241Z,51.56
2019-03-05T14:38:54.635Z,52.10
2019-03-05T14:40:22.252Z,51.41
2019-03-05T14:41:03.536Z,49.92
2019-03-05T14:42:09.135Z,48.37
2019-03-05T14:43:13.489Z,47.94
2019-03-05T14:44:18.050Z,48.26
2019-03-05T14:45:25.657Z,49.10
2019-03-05T14:46:30.287Z,47.28
2019-03-05T14:47:34.661Z,45.92
2019-03-05T14:48:38.916Z,46.41
2019-03-05T14:49:43.252Z,45.83
2019-03-05T14:50:47.507Z,43.86
2019-03-05T14:51:51.906Z,47.60
2019-03-05T14:52:56.292Z,47.30
2019-03-05T14:54:00.812Z,43.40
2019-03-05T14:55:05.586Z,46.39
2019-03-05T14:56:09.938Z,46.78
2019-03-05T14:57:14.390Z,45.41
2019-03-05T14:58:18.739Z,44.71
2019-03-05T14:59:23.286Z,43.82